sensor_id;sensor_type;location;lat;lon;timestamp;P1;durP1;ratioP1;P2;durP2;ratioP2
15936;SDS011;9163;48.818;8.976;2023-04-24T00:01:25;1.20;;;0.70;;
15936;SDS011;9163;48.818;8.976;2023-04-24T00:03:53;1.23;;;0.77;;
15936;SDS011;9163;48.818;8.976;2023-04-24T00:06:21;1.77;;;0.83;;
15936;SDS011;9163;48.818;8.976;2023-04-24T00:08:49;2.17;;;0.87;;
15936;SDS011;9163;48.818;8.976;2023-04-24T00:11:16;3.23;;;0.87;;
15936;SDS011;9163;48.818;8.976;2023-04-24T00:13:43;1.60;;;0.97;;
15936;SDS011;9163;48.818;8.976;2023-04-24T00:16:10;1.73;;;0.70;;
15936;SDS011;9163;48.818;8.976;2023-04-24T00:18:38;1.23;;;0.80;;
15936;SDS011;9163;48.818;8.976;2023-04-24T00:21:06;2.10;;;0.70;;
15936;SDS011;9163;48.818;8.976;2023-04-24T00:23:33;2.60;;;0.77;;
15936;SDS011;9163;48.818;8.976;2023-04-24T00:26:01;2.20;;;0.77;;
15936;SDS011;9163;48.818;8.976;2023-04-24T00:28:28;1.97;;;0.70;;
15936;SDS011;9163;48.818;8.976;2023-04-24T00:30:55;1.83;;;0.70;;
15936;SDS011;9163;48.818;8.976;2023-04-24T00:33:23;1.37;;;0.90;;
15936;SDS011;9163;48.818;8.976;2023-04-24T00:35:50;1.03;;;0.60;;
15936;SDS011;9163;48.818;8.976;2023-04-24T00:38:18;2.00;;;0.80;;
15936;SDS011;9163;48.818;8.976;2023-04-24T00:40:46;1.40;;;0.80;;
15936;SDS011;9163;48.818;8.976;2023-04-24T00:43:13;1.67;;;0.70;;
15936;SDS011;9163;48.818;8.976;2023-04-24T00:45:41;2.43;;;0.80;;
15936;SDS011;9163;48.818;8.976;2023-04-24T00:48:08;1.10;;;0.80;;
15936;SDS011;9163;48.818;8.976;2023-04-24T00:50:36;1.10;;;0.50;;
15936;SDS011;9163;48.818;8.976;2023-04-24T00:53:04;2.53;;;0.60;;
15936;SDS011;9163;48.818;8.976;2023-04-24T00:55:33;2.53;;;0.80;;
15936;SDS011;9163;48.818;8.976;2023-04-24T00:58:00;1.17;;;0.60;;
15936;SDS011;9163;48.818;8.976;2023-04-24T01:00:28;1.13;;;0.70;;
15936;SDS011;9163;48.818;8.976;2023-04-24T01:02:55;1.53;;;0.60;;
15936;SDS011;9163;48.818;8.976;2023-04-24T01:05:24;2.27;;;0.60;;
15936;SDS011;9163;48.818;8.976;2023-04-24T01:07:52;1.40;;;0.80;;
15936;SDS011;9163;48.818;8.976;2023-04-24T01:10:19;1.10;;;0.70;;
15936;SDS011;9163;48.818;8.976;2023-04-24T01:12:48;1.30;;;0.50;;
15936;SDS011;9163;48.818;8.976;2023-04-24T01:15:15;1.07;;;0.60;;
15936;SDS011;9163;48.818;8.976;2023-04-24T01:17:42;2.30;;;0.80;;
15936;SDS011;9163;48.818;8.976;2023-04-24T01:20:10;1.23;;;0.70;;
15936;SDS011;9163;48.818;8.976;2023-04-24T01:22:39;1.20;;;0.70;;
15936;SDS011;9163;48.818;8.976;2023-04-24T01:25:07;1.73;;;0.60;;
15936;SDS011;9163;48.818;8.976;2023-04-24T01:27:34;2.40;;;0.70;;
15936;SDS011;9163;48.818;8.976;2023-04-24T01:30:02;3.20;;;0.80;;
15936;SDS011;9163;48.818;8.976;2023-04-24T01:32:29;1.47;;;0.63;;
15936;SDS011;9163;48.818;8.976;2023-04-24T01:34:57;1.93;;;0.70;;
15936;SDS011;9163;48.818;8.976;2023-04-24T01:37:24;0.83;;;0.70;;
15936;SDS011;9163;48.818;8.976;2023-04-24T01:39:53;2.63;;;0.90;;
15936;SDS011;9163;48.818;8.976;2023-04-24T01:42:21;1.73;;;0.70;;
15936;SDS011;9163;48.818;8.976;2023-04-24T01:44:49;1.87;;;0.70;;
15936;SDS011;9163;48.818;8.976;2023-04-24T01:47:16;1.67;;;0.80;;
15936;SDS011;9163;48.818;8.976;2023-04-24T01:49:43;1.80;;;0.67;;
15936;SDS011;9163;48.818;8.976;2023-04-24T01:52:14;1.57;;;0.70;;
15936;SDS011;9163;48.818;8.976;2023-04-24T01:54:41;2.00;;;0.90;;
15936;SDS011;9163;48.818;8.976;2023-04-24T01:57:10;1.80;;;0.87;;
15936;SDS011;9163;48.818;8.976;2023-04-24T01:59:37;0.90;;;0.83;;
15936;SDS011;9163;48.818;8.976;2023-04-24T02:02:04;1.47;;;0.70;;
15936;SDS011;9163;48.818;8.976;2023-04-24T02:04:32;2.13;;;1.00;;
15936;SDS011;9163;48.818;8.976;2023-04-24T02:07:00;1.77;;;0.73;;
15936;SDS011;9163;48.818;8.976;2023-04-24T02:09:27;1.50;;;0.80;;
15936;SDS011;9163;48.818;8.976;2023-04-24T02:11:54;2.33;;;1.10;;
15936;SDS011;9163;48.818;8.976;2023-04-24T02:14:23;1.67;;;0.90;;
15936;SDS011;9163;48.818;8.976;2023-04-24T02:16:50;1.53;;;0.90;;
15936;SDS011;9163;48.818;8.976;2023-04-24T02:19:18;1.20;;;0.80;;
15936;SDS011;9163;48.818;8.976;2023-04-24T02:21:46;1.90;;;0.80;;
15936;SDS011;9163;48.818;8.976;2023-04-24T02:24:13;1.90;;;0.90;;
15936;SDS011;9163;48.818;8.976;2023-04-24T02:26:41;2.30;;;0.80;;
15936;SDS011;9163;48.818;8.976;2023-04-24T02:29:08;1.67;;;0.90;;
15936;SDS011;9163;48.818;8.976;2023-04-24T02:31:37;1.70;;;0.80;;
15936;SDS011;9163;48.818;8.976;2023-04-24T02:34:04;1.70;;;0.83;;
15936;SDS011;9163;48.818;8.976;2023-04-24T02:36:32;2.27;;;1.03;;
15936;SDS011;9163;48.818;8.976;2023-04-24T02:38:59;1.93;;;0.80;;
15936;SDS011;9163;48.818;8.976;2023-04-24T02:41:26;2.20;;;1.00;;
15936;SDS011;9163;48.818;8.976;2023-04-24T02:43:57;0.80;;;0.80;;
15936;SDS011;9163;48.818;8.976;2023-04-24T02:46:24;1.93;;;0.90;;
15936;SDS011;9163;48.818;8.976;2023-04-24T02:48:53;2.47;;;0.90;;
15936;SDS011;9163;48.818;8.976;2023-04-24T02:51:20;1.37;;;1.00;;
15936;SDS011;9163;48.818;8.976;2023-04-24T02:53:47;1.67;;;0.80;;
15936;SDS011;9163;48.818;8.976;2023-04-24T02:56:15;1.70;;;0.90;;
15936;SDS011;9163;48.818;8.976;2023-04-24T02:58:42;1.60;;;1.10;;
15936;SDS011;9163;48.818;8.976;2023-04-24T03:01:09;1.87;;;1.10;;
15936;SDS011;9163;48.818;8.976;2023-04-24T03:03:37;2.77;;;1.00;;
15936;SDS011;9163;48.818;8.976;2023-04-24T03:06:05;2.30;;;0.93;;
15936;SDS011;9163;48.818;8.976;2023-04-24T03:08:33;2.50;;;1.20;;
15936;SDS011;9163;48.818;8.976;2023-04-24T03:11:00;4.40;;;1.20;;
15936;SDS011;9163;48.818;8.976;2023-04-24T03:13:28;2.13;;;1.20;;
15936;SDS011;9163;48.818;8.976;2023-04-24T03:15:55;1.67;;;1.10;;
15936;SDS011;9163;48.818;8.976;2023-04-24T03:18:22;1.50;;;1.10;;
15936;SDS011;9163;48.818;8.976;2023-04-24T03:20:49;3.40;;;1.20;;
15936;SDS011;9163;48.818;8.976;2023-04-24T03:23:18;2.80;;;1.10;;
15936;SDS011;9163;48.818;8.976;2023-04-24T03:25:45;1.10;;;0.80;;
15936;SDS011;9163;48.818;8.976;2023-04-24T03:28:13;3.90;;;1.10;;
15936;SDS011;9163;48.818;8.976;2023-04-24T03:30:41;2.57;;;1.13;;
15936;SDS011;9163;48.818;8.976;2023-04-24T03:33:08;3.70;;;1.20;;
15936;SDS011;9163;48.818;8.976;2023-04-24T03:35:35;1.60;;;0.97;;
15936;SDS011;9163;48.818;8.976;2023-04-24T03:38:02;1.10;;;1.00;;
15936;SDS011;9163;48.818;8.976;2023-04-24T03:40:32;5.50;;;1.17;;
15936;SDS011;9163;48.818;8.976;2023-04-24T03:43:00;2.27;;;1.20;;
15936;SDS011;9163;48.818;8.976;2023-04-24T03:45:27;1.80;;;1.20;;
15936;SDS011;9163;48.818;8.976;2023-04-24T03:47:54;4.20;;;1.60;;
15936;SDS011;9163;48.818;8.976;2023-04-24T03:50:21;3.50;;;1.60;;
15936;SDS011;9163;48.818;8.976;2023-04-24T03:52:49;3.00;;;1.70;;
15936;SDS011;9163;48.818;8.976;2023-04-24T03:55:16;1.80;;;1.30;;
15936;SDS011;9163;48.818;8.976;2023-04-24T03:57:44;2.93;;;1.53;;
15936;SDS011;9163;48.818;8.976;2023-04-24T04:00:12;2.40;;;1.67;;
15936;SDS011;9163;48.818;8.976;2023-04-24T04:02:40;3.30;;;1.77;;
15936;SDS011;9163;48.818;8.976;2023-04-24T04:05:07;3.77;;;1.30;;
15936;SDS011;9163;48.818;8.976;2023-04-24T04:07:34;2.33;;;1.10;;
15936;SDS011;9163;48.818;8.976;2023-04-24T04:10:02;2.43;;;1.13;;
15936;SDS011;9163;48.818;8.976;2023-04-24T04:12:29;2.53;;;1.30;;
15936;SDS011;9163;48.818;8.976;2023-04-24T04:14:58;1.07;;;0.97;;
15936;SDS011;9163;48.818;8.976;2023-04-24T04:17:25;2.63;;;1.00;;
15936;SDS011;9163;48.818;8.976;2023-04-24T04:19:52;1.53;;;1.20;;
15936;SDS011;9163;48.818;8.976;2023-04-24T04:22:20;1.70;;;1.20;;
15936;SDS011;9163;48.818;8.976;2023-04-24T04:24:47;1.33;;;1.10;;
15936;SDS011;9163;48.818;8.976;2023-04-24T04:27:16;2.00;;;1.00;;
15936;SDS011;9163;48.818;8.976;2023-04-24T04:29:44;1.63;;;1.10;;
15936;SDS011;9163;48.818;8.976;2023-04-24T04:32:12;1.50;;;1.10;;
15936;SDS011;9163;48.818;8.976;2023-04-24T04:34:40;1.73;;;1.00;;
15936;SDS011;9163;48.818;8.976;2023-04-24T04:37:08;1.30;;;1.10;;
15936;SDS011;9163;48.818;8.976;2023-04-24T04:39:36;1.23;;;1.10;;
15936;SDS011;9163;48.818;8.976;2023-04-24T04:42:03;1.30;;;1.10;;
15936;SDS011;9163;48.818;8.976;2023-04-24T04:44:32;2.13;;;1.10;;
15936;SDS011;9163;48.818;8.976;2023-04-24T04:47:01;1.37;;;1.17;;
15936;SDS011;9163;48.818;8.976;2023-04-24T04:49:32;1.30;;;1.20;;
15936;SDS011;9163;48.818;8.976;2023-04-24T04:52:00;2.30;;;1.30;;
15936;SDS011;9163;48.818;8.976;2023-04-24T04:54:27;1.83;;;1.10;;
15936;SDS011;9163;48.818;8.976;2023-04-24T04:56:54;5.40;;;3.10;;
15936;SDS011;9163;48.818;8.976;2023-04-24T04:59:22;1.50;;;1.30;;
15936;SDS011;9163;48.818;8.976;2023-04-24T05:01:50;3.30;;;1.60;;
15936;SDS011;9163;48.818;8.976;2023-04-24T05:04:17;1.30;;;1.20;;
15936;SDS011;9163;48.818;8.976;2023-04-24T05:06:46;2.77;;;1.73;;
15936;SDS011;9163;48.818;8.976;2023-04-24T05:09:13;2.37;;;1.47;;
15936;SDS011;9163;48.818;8.976;2023-04-24T05:11:41;2.07;;;1.53;;
15936;SDS011;9163;48.818;8.976;2023-04-24T05:14:08;2.40;;;1.93;;
15936;SDS011;9163;48.818;8.976;2023-04-24T05:16:35;1.60;;;1.50;;
15936;SDS011;9163;48.818;8.976;2023-04-24T05:19:03;5.33;;;2.37;;
15936;SDS011;9163;48.818;8.976;2023-04-24T05:21:30;2.20;;;1.90;;
15936;SDS011;9163;48.818;8.976;2023-04-24T05:23:59;1.73;;;1.47;;
15936;SDS011;9163;48.818;8.976;2023-04-24T05:26:26;2.20;;;2.00;;
15936;SDS011;9163;48.818;8.976;2023-04-24T05:28:53;3.10;;;1.70;;
15936;SDS011;9163;48.818;8.976;2023-04-24T05:31:20;3.63;;;1.70;;
15936;SDS011;9163;48.818;8.976;2023-04-24T05:33:48;2.07;;;1.60;;
15936;SDS011;9163;48.818;8.976;2023-04-24T05:36:15;2.23;;;2.00;;
15936;SDS011;9163;48.818;8.976;2023-04-24T05:38:42;2.57;;;1.73;;
15936;SDS011;9163;48.818;8.976;2023-04-24T05:41:11;2.80;;;1.90;;
15936;SDS011;9163;48.818;8.976;2023-04-24T05:43:38;1.93;;;1.53;;
15936;SDS011;9163;48.818;8.976;2023-04-24T05:46:05;2.50;;;1.70;;
15936;SDS011;9163;48.818;8.976;2023-04-24T05:48:32;1.83;;;1.47;;
15936;SDS011;9163;48.818;8.976;2023-04-24T05:51:00;3.53;;;1.80;;
15936;SDS011;9163;48.818;8.976;2023-04-24T05:53:27;2.30;;;1.40;;
15936;SDS011;9163;48.818;8.976;2023-04-24T05:55:54;1.70;;;1.60;;
15936;SDS011;9163;48.818;8.976;2023-04-24T05:58:23;2.93;;;1.90;;
15936;SDS011;9163;48.818;8.976;2023-04-24T06:00:50;3.80;;;2.20;;
15936;SDS011;9163;48.818;8.976;2023-04-24T06:03:17;3.23;;;2.17;;
15936;SDS011;9163;48.818;8.976;2023-04-24T06:05:44;2.07;;;1.87;;
15936;SDS011;9163;48.818;8.976;2023-04-24T06:08:11;2.93;;;1.90;;
15936;SDS011;9163;48.818;8.976;2023-04-24T06:10:39;3.00;;;1.80;;
15936;SDS011;9163;48.818;8.976;2023-04-24T06:13:06;2.97;;;1.90;;
15936;SDS011;9163;48.818;8.976;2023-04-24T06:15:35;2.17;;;1.97;;
15936;SDS011;9163;48.818;8.976;2023-04-24T06:18:02;2.03;;;1.77;;
15936;SDS011;9163;48.818;8.976;2023-04-24T06:20:30;3.67;;;1.80;;
15936;SDS011;9163;48.818;8.976;2023-04-24T06:22:57;1.90;;;1.60;;
15936;SDS011;9163;48.818;8.976;2023-04-24T06:25:24;2.53;;;1.90;;
15936;SDS011;9163;48.818;8.976;2023-04-24T06:27:52;1.87;;;1.77;;
15936;SDS011;9163;48.818;8.976;2023-04-24T06:30:20;3.57;;;1.90;;
15936;SDS011;9163;48.818;8.976;2023-04-24T06:32:49;3.20;;;1.70;;
15936;SDS011;9163;48.818;8.976;2023-04-24T06:35:16;3.20;;;1.80;;
15936;SDS011;9163;48.818;8.976;2023-04-24T06:37:44;3.00;;;1.63;;
15936;SDS011;9163;48.818;8.976;2023-04-24T06:40:11;2.17;;;1.70;;
15936;SDS011;9163;48.818;8.976;2023-04-24T06:42:38;2.63;;;1.53;;
15936;SDS011;9163;48.818;8.976;2023-04-24T06:45:06;2.37;;;1.80;;
15936;SDS011;9163;48.818;8.976;2023-04-24T06:47:33;3.37;;;1.93;;
15936;SDS011;9163;48.818;8.976;2023-04-24T06:50:02;3.27;;;1.90;;
15936;SDS011;9163;48.818;8.976;2023-04-24T06:52:30;2.67;;;1.73;;
15936;SDS011;9163;48.818;8.976;2023-04-24T06:54:59;2.80;;;1.70;;
15936;SDS011;9163;48.818;8.976;2023-04-24T06:57:27;4.13;;;2.00;;
15936;SDS011;9163;48.818;8.976;2023-04-24T06:59:55;3.70;;;1.60;;
15936;SDS011;9163;48.818;8.976;2023-04-24T07:02:22;1.97;;;1.57;;
15936;SDS011;9163;48.818;8.976;2023-04-24T07:04:49;3.63;;;1.87;;
15936;SDS011;9163;48.818;8.976;2023-04-24T07:07:19;2.07;;;1.70;;
15936;SDS011;9163;48.818;8.976;2023-04-24T07:09:46;2.50;;;1.90;;
15936;SDS011;9163;48.818;8.976;2023-04-24T07:12:14;3.47;;;1.67;;
15936;SDS011;9163;48.818;8.976;2023-04-24T07:14:42;2.97;;;1.50;;
15936;SDS011;9163;48.818;8.976;2023-04-24T07:17:09;1.87;;;1.50;;
15936;SDS011;9163;48.818;8.976;2023-04-24T07:19:38;4.17;;;1.73;;
15936;SDS011;9163;48.818;8.976;2023-04-24T07:22:05;2.10;;;1.90;;
15936;SDS011;9163;48.818;8.976;2023-04-24T07:24:34;2.33;;;1.73;;
15936;SDS011;9163;48.818;8.976;2023-04-24T07:27:01;3.60;;;1.53;;
15936;SDS011;9163;48.818;8.976;2023-04-24T07:29:29;2.87;;;1.50;;
15936;SDS011;9163;48.818;8.976;2023-04-24T07:31:56;1.90;;;1.40;;
15936;SDS011;9163;48.818;8.976;2023-04-24T07:34:23;1.53;;;1.20;;
15936;SDS011;9163;48.818;8.976;2023-04-24T07:36:50;3.10;;;1.50;;
15936;SDS011;9163;48.818;8.976;2023-04-24T07:39:18;2.47;;;1.27;;
15936;SDS011;9163;48.818;8.976;2023-04-24T07:41:46;1.50;;;1.17;;
15936;SDS011;9163;48.818;8.976;2023-04-24T07:44:13;2.30;;;1.30;;
15936;SDS011;9163;48.818;8.976;2023-04-24T07:46:41;1.80;;;1.17;;
15936;SDS011;9163;48.818;8.976;2023-04-24T07:49:08;5.10;;;1.43;;
15936;SDS011;9163;48.818;8.976;2023-04-24T07:51:35;1.83;;;1.37;;
15936;SDS011;9163;48.818;8.976;2023-04-24T07:54:03;2.93;;;1.40;;
15936;SDS011;9163;48.818;8.976;2023-04-24T07:56:32;3.57;;;1.33;;
15936;SDS011;9163;48.818;8.976;2023-04-24T07:59:01;3.13;;;1.40;;
15936;SDS011;9163;48.818;8.976;2023-04-24T08:01:28;2.53;;;1.27;;
15936;SDS011;9163;48.818;8.976;2023-04-24T08:03:56;1.90;;;1.53;;
15936;SDS011;9163;48.818;8.976;2023-04-24T08:06:23;2.77;;;1.20;;
15936;SDS011;9163;48.818;8.976;2023-04-24T08:08:53;3.70;;;1.40;;
15936;SDS011;9163;48.818;8.976;2023-04-24T08:11:20;1.60;;;1.20;;
15936;SDS011;9163;48.818;8.976;2023-04-24T08:13:47;3.53;;;1.40;;
15936;SDS011;9163;48.818;8.976;2023-04-24T08:16:16;1.70;;;1.30;;
15936;SDS011;9163;48.818;8.976;2023-04-24T08:18:43;2.87;;;1.50;;
15936;SDS011;9163;48.818;8.976;2023-04-24T08:21:10;1.90;;;1.50;;
15936;SDS011;9163;48.818;8.976;2023-04-24T08:23:42;2.70;;;1.43;;
15936;SDS011;9163;48.818;8.976;2023-04-24T08:26:09;2.20;;;1.20;;
15936;SDS011;9163;48.818;8.976;2023-04-24T08:28:37;2.43;;;1.60;;
15936;SDS011;9163;48.818;8.976;2023-04-24T08:31:04;1.80;;;1.20;;
15936;SDS011;9163;48.818;8.976;2023-04-24T08:33:33;1.47;;;1.37;;
15936;SDS011;9163;48.818;8.976;2023-04-24T08:36:01;3.47;;;1.30;;
15936;SDS011;9163;48.818;8.976;2023-04-24T08:38:29;2.63;;;1.70;;
15936;SDS011;9163;48.818;8.976;2023-04-24T08:40:57;1.80;;;1.37;;
15936;SDS011;9163;48.818;8.976;2023-04-24T08:43:26;1.70;;;1.47;;
15936;SDS011;9163;48.818;8.976;2023-04-24T08:45:55;2.47;;;1.47;;
15936;SDS011;9163;48.818;8.976;2023-04-24T08:48:24;2.20;;;1.40;;
15936;SDS011;9163;48.818;8.976;2023-04-24T08:50:54;2.23;;;1.60;;
15936;SDS011;9163;48.818;8.976;2023-04-24T08:53:22;2.93;;;1.50;;
15936;SDS011;9163;48.818;8.976;2023-04-24T08:55:51;1.80;;;1.37;;
15936;SDS011;9163;48.818;8.976;2023-04-24T08:58:22;2.23;;;1.10;;
15936;SDS011;9163;48.818;8.976;2023-04-24T09:00:51;2.37;;;1.60;;
15936;SDS011;9163;48.818;8.976;2023-04-24T09:03:21;1.50;;;1.10;;
15936;SDS011;9163;48.818;8.976;2023-04-24T09:05:48;2.97;;;1.40;;
15936;SDS011;9163;48.818;8.976;2023-04-24T09:08:18;5.10;;;1.33;;
15936;SDS011;9163;48.818;8.976;2023-04-24T09:10:46;2.50;;;1.60;;
15936;SDS011;9163;48.818;8.976;2023-04-24T09:13:13;2.33;;;1.30;;
15936;SDS011;9163;48.818;8.976;2023-04-24T09:15:42;1.43;;;1.20;;
15936;SDS011;9163;48.818;8.976;2023-04-24T09:18:10;1.87;;;1.33;;
15936;SDS011;9163;48.818;8.976;2023-04-24T09:23:27;2.20;;;1.40;;
15936;SDS011;9163;48.818;8.976;2023-04-24T09:25:55;2.10;;;1.40;;
15936;SDS011;9163;48.818;8.976;2023-04-24T09:28:25;2.80;;;1.40;;
15936;SDS011;9163;48.818;8.976;2023-04-24T09:31:06;2.20;;;1.57;;
15936;SDS011;9163;48.818;8.976;2023-04-24T09:33:35;2.07;;;1.20;;
15936;SDS011;9163;48.818;8.976;2023-04-24T09:36:03;1.47;;;1.13;;
15936;SDS011;9163;48.818;8.976;2023-04-24T09:38:33;3.43;;;1.10;;
15936;SDS011;9163;48.818;8.976;2023-04-24T09:41:02;1.60;;;1.00;;
15936;SDS011;9163;48.818;8.976;2023-04-24T14:02:35;1.83;;;1.53;;
15936;SDS011;9163;48.818;8.976;2023-04-24T14:05:08;2.40;;;1.57;;
15936;SDS011;9163;48.818;8.976;2023-04-24T14:07:37;3.17;;;2.00;;
15936;SDS011;9163;48.818;8.976;2023-04-24T14:10:05;1.80;;;1.60;;
15936;SDS011;9163;48.818;8.976;2023-04-24T14:12:32;2.60;;;1.60;;
15936;SDS011;9163;48.818;8.976;2023-04-24T14:15:00;2.70;;;1.83;;
15936;SDS011;9163;48.818;8.976;2023-04-24T14:17:27;3.70;;;1.90;;
15936;SDS011;9163;48.818;8.976;2023-04-24T14:19:57;2.43;;;1.73;;
15936;SDS011;9163;48.818;8.976;2023-04-24T14:26:07;2.43;;;1.80;;
15936;SDS011;9163;48.818;8.976;2023-04-24T14:28:34;4.53;;;1.80;;
15936;SDS011;9163;48.818;8.976;2023-04-24T14:31:01;2.90;;;1.70;;
15936;SDS011;9163;48.818;8.976;2023-04-24T14:33:29;3.63;;;1.90;;
15936;SDS011;9163;48.818;8.976;2023-04-24T14:35:57;2.00;;;1.80;;
15936;SDS011;9163;48.818;8.976;2023-04-24T14:38:25;3.07;;;1.80;;
15936;SDS011;9163;48.818;8.976;2023-04-24T14:40:52;2.37;;;1.93;;
15936;SDS011;9163;48.818;8.976;2023-04-24T14:43:19;3.47;;;1.80;;
15936;SDS011;9163;48.818;8.976;2023-04-24T14:45:46;2.20;;;1.77;;
15936;SDS011;9163;48.818;8.976;2023-04-24T14:48:14;2.80;;;2.00;;
15936;SDS011;9163;48.818;8.976;2023-04-24T14:50:41;2.53;;;1.90;;
15936;SDS011;9163;48.818;8.976;2023-04-24T14:53:10;3.13;;;2.20;;
15936;SDS011;9163;48.818;8.976;2023-04-24T14:55:37;2.60;;;2.00;;
15936;SDS011;9163;48.818;8.976;2023-04-24T14:58:04;3.70;;;1.83;;
15936;SDS011;9163;48.818;8.976;2023-04-24T15:00:32;2.93;;;2.17;;
15936;SDS011;9163;48.818;8.976;2023-04-24T15:03:00;2.37;;;1.60;;
15936;SDS011;9163;48.818;8.976;2023-04-24T15:05:27;3.10;;;1.83;;
15936;SDS011;9163;48.818;8.976;2023-04-24T15:07:55;3.27;;;1.90;;
15936;SDS011;9163;48.818;8.976;2023-04-24T15:10:24;3.00;;;2.03;;
15936;SDS011;9163;48.818;8.976;2023-04-24T15:12:51;2.80;;;1.90;;
15936;SDS011;9163;48.818;8.976;2023-04-24T15:15:19;2.43;;;2.00;;
15936;SDS011;9163;48.818;8.976;2023-04-24T15:17:46;2.80;;;1.97;;
15936;SDS011;9163;48.818;8.976;2023-04-24T15:20:13;2.93;;;1.93;;
15936;SDS011;9163;48.818;8.976;2023-04-24T15:22:40;2.37;;;1.53;;
15936;SDS011;9163;48.818;8.976;2023-04-24T15:25:08;2.90;;;1.80;;
15936;SDS011;9163;48.818;8.976;2023-04-24T15:27:41;1.73;;;1.60;;
15936;SDS011;9163;48.818;8.976;2023-04-24T15:30:09;2.83;;;1.30;;
15936;SDS011;9163;48.818;8.976;2023-04-24T15:32:37;1.40;;;1.03;;
15936;SDS011;9163;48.818;8.976;2023-04-24T15:35:05;1.80;;;1.10;;
15936;SDS011;9163;48.818;8.976;2023-04-24T15:37:33;2.30;;;1.30;;
15936;SDS011;9163;48.818;8.976;2023-04-24T15:40:00;3.63;;;1.53;;
15936;SDS011;9163;48.818;8.976;2023-04-24T15:42:29;1.70;;;1.50;;
15936;SDS011;9163;48.818;8.976;2023-04-24T15:44:58;2.07;;;1.40;;
15936;SDS011;9163;48.818;8.976;2023-04-24T15:47:25;1.63;;;1.40;;
15936;SDS011;9163;48.818;8.976;2023-04-24T15:49:52;2.67;;;1.50;;
15936;SDS011;9163;48.818;8.976;2023-04-24T15:52:20;3.77;;;1.50;;
15936;SDS011;9163;48.818;8.976;2023-04-24T15:54:48;3.80;;;1.40;;
15936;SDS011;9163;48.818;8.976;2023-04-24T15:57:15;2.77;;;1.80;;
15936;SDS011;9163;48.818;8.976;2023-04-24T15:59:42;2.50;;;1.60;;
15936;SDS011;9163;48.818;8.976;2023-04-24T16:02:13;2.67;;;1.53;;
15936;SDS011;9163;48.818;8.976;2023-04-24T16:04:43;2.30;;;1.50;;
15936;SDS011;9163;48.818;8.976;2023-04-24T16:07:11;1.90;;;1.47;;
15936;SDS011;9163;48.818;8.976;2023-04-24T16:09:39;2.90;;;1.60;;
15936;SDS011;9163;48.818;8.976;2023-04-24T16:12:06;2.87;;;1.93;;
15936;SDS011;9163;48.818;8.976;2023-04-24T16:14:34;2.03;;;1.50;;
15936;SDS011;9163;48.818;8.976;2023-04-24T16:17:02;2.40;;;1.60;;
15936;SDS011;9163;48.818;8.976;2023-04-24T16:19:31;2.40;;;1.20;;
15936;SDS011;9163;48.818;8.976;2023-04-24T16:21:59;1.90;;;1.40;;
15936;SDS011;9163;48.818;8.976;2023-04-24T16:24:27;1.30;;;1.20;;
15936;SDS011;9163;48.818;8.976;2023-04-24T16:26:55;1.83;;;1.43;;
15936;SDS011;9163;48.818;8.976;2023-04-24T16:29:22;2.37;;;1.67;;
15936;SDS011;9163;48.818;8.976;2023-04-24T16:31:50;2.60;;;1.30;;
15936;SDS011;9163;48.818;8.976;2023-04-24T16:34:17;1.50;;;1.20;;
15936;SDS011;9163;48.818;8.976;2023-04-24T16:36:45;2.03;;;1.33;;
15936;SDS011;9163;48.818;8.976;2023-04-24T16:39:13;2.17;;;1.40;;
15936;SDS011;9163;48.818;8.976;2023-04-24T16:41:40;2.00;;;1.20;;
15936;SDS011;9163;48.818;8.976;2023-04-24T16:44:07;1.30;;;1.20;;
15936;SDS011;9163;48.818;8.976;2023-04-24T16:46:34;3.83;;;1.13;;
15936;SDS011;9163;48.818;8.976;2023-04-24T16:49:02;2.13;;;1.30;;
15936;SDS011;9163;48.818;8.976;2023-04-24T16:51:29;1.00;;;0.90;;
15936;SDS011;9163;48.818;8.976;2023-04-24T16:53:58;1.33;;;1.20;;
15936;SDS011;9163;48.818;8.976;2023-04-24T16:56:26;1.63;;;1.03;;
15936;SDS011;9163;48.818;8.976;2023-04-24T16:58:53;2.30;;;1.20;;
15936;SDS011;9163;48.818;8.976;2023-04-24T17:01:20;1.50;;;1.00;;
15936;SDS011;9163;48.818;8.976;2023-04-24T17:03:47;1.33;;;1.07;;
15936;SDS011;9163;48.818;8.976;2023-04-24T17:06:15;1.67;;;1.00;;
15936;SDS011;9163;48.818;8.976;2023-04-24T17:08:42;2.03;;;1.20;;
15936;SDS011;9163;48.818;8.976;2023-04-24T17:11:10;2.53;;;1.30;;
15936;SDS011;9163;48.818;8.976;2023-04-24T17:13:38;1.93;;;1.10;;
15936;SDS011;9163;48.818;8.976;2023-04-24T17:16:05;2.00;;;1.00;;
15936;SDS011;9163;48.818;8.976;2023-04-24T17:18:32;1.77;;;1.10;;
15936;SDS011;9163;48.818;8.976;2023-04-24T17:21:00;2.10;;;1.30;;
15936;SDS011;9163;48.818;8.976;2023-04-24T17:23:27;1.80;;;1.40;;
15936;SDS011;9163;48.818;8.976;2023-04-24T17:25:54;2.10;;;1.10;;
15936;SDS011;9163;48.818;8.976;2023-04-24T17:28:24;2.00;;;1.17;;
15936;SDS011;9163;48.818;8.976;2023-04-24T17:30:52;1.73;;;1.47;;
15936;SDS011;9163;48.818;8.976;2023-04-24T17:33:22;1.93;;;1.47;;
15936;SDS011;9163;48.818;8.976;2023-04-24T17:35:49;3.30;;;1.50;;
15936;SDS011;9163;48.818;8.976;2023-04-24T17:38:17;1.80;;;1.40;;
15936;SDS011;9163;48.818;8.976;2023-04-24T17:40:44;2.20;;;1.50;;
15936;SDS011;9163;48.818;8.976;2023-04-24T17:43:12;2.43;;;1.37;;
15936;SDS011;9163;48.818;8.976;2023-04-24T17:45:44;2.80;;;1.50;;
15936;SDS011;9163;48.818;8.976;2023-04-24T17:48:11;3.93;;;1.60;;
15936;SDS011;9163;48.818;8.976;2023-04-24T17:50:39;3.10;;;1.53;;
15936;SDS011;9163;48.818;8.976;2023-04-24T17:53:07;2.37;;;1.40;;
15936;SDS011;9163;48.818;8.976;2023-04-24T17:55:35;1.63;;;1.50;;
15936;SDS011;9163;48.818;8.976;2023-04-24T17:58:03;2.37;;;1.60;;
15936;SDS011;9163;48.818;8.976;2023-04-24T18:00:31;2.67;;;1.83;;
15936;SDS011;9163;48.818;8.976;2023-04-24T18:03:00;1.70;;;1.60;;
15936;SDS011;9163;48.818;8.976;2023-04-24T18:05:28;3.73;;;1.67;;
15936;SDS011;9163;48.818;8.976;2023-04-24T18:07:56;2.70;;;1.60;;
15936;SDS011;9163;48.818;8.976;2023-04-24T18:10:25;4.07;;;1.60;;
15936;SDS011;9163;48.818;8.976;2023-04-24T18:12:52;2.47;;;1.80;;
15936;SDS011;9163;48.818;8.976;2023-04-24T18:15:21;2.13;;;1.73;;
15936;SDS011;9163;48.818;8.976;2023-04-24T18:17:48;3.90;;;1.73;;
15936;SDS011;9163;48.818;8.976;2023-04-24T18:20:17;3.00;;;1.70;;
15936;SDS011;9163;48.818;8.976;2023-04-24T18:22:45;2.30;;;1.80;;
15936;SDS011;9163;48.818;8.976;2023-04-24T18:25:12;7.03;;;1.80;;
15936;SDS011;9163;48.818;8.976;2023-04-24T18:27:40;3.67;;;1.73;;
15936;SDS011;9163;48.818;8.976;2023-04-24T18:30:08;2.07;;;1.80;;
15936;SDS011;9163;48.818;8.976;2023-04-24T18:32:36;3.40;;;1.60;;
15936;SDS011;9163;48.818;8.976;2023-04-24T18:35:04;2.50;;;1.63;;
15936;SDS011;9163;48.818;8.976;2023-04-24T18:37:33;3.00;;;1.67;;
15936;SDS011;9163;48.818;8.976;2023-04-24T18:40:00;2.20;;;1.70;;
15936;SDS011;9163;48.818;8.976;2023-04-24T18:42:28;3.00;;;1.60;;
15936;SDS011;9163;48.818;8.976;2023-04-24T18:44:55;2.13;;;1.60;;
15936;SDS011;9163;48.818;8.976;2023-04-24T18:47:25;2.37;;;1.53;;
15936;SDS011;9163;48.818;8.976;2023-04-24T18:49:53;1.93;;;1.53;;
15936;SDS011;9163;48.818;8.976;2023-04-24T18:52:20;2.23;;;1.90;;
15936;SDS011;9163;48.818;8.976;2023-04-24T18:54:50;3.07;;;1.90;;
15936;SDS011;9163;48.818;8.976;2023-04-24T18:57:17;2.57;;;1.80;;
15936;SDS011;9163;48.818;8.976;2023-04-24T18:59:45;1.93;;;1.73;;
15936;SDS011;9163;48.818;8.976;2023-04-24T19:02:12;2.73;;;1.90;;
15936;SDS011;9163;48.818;8.976;2023-04-24T19:04:39;3.23;;;1.73;;
15936;SDS011;9163;48.818;8.976;2023-04-24T19:07:07;2.50;;;1.90;;
15936;SDS011;9163;48.818;8.976;2023-04-24T19:09:34;4.00;;;1.80;;
15936;SDS011;9163;48.818;8.976;2023-04-24T19:12:02;4.07;;;1.90;;
15936;SDS011;9163;48.818;8.976;2023-04-24T19:14:31;2.43;;;1.90;;
15936;SDS011;9163;48.818;8.976;2023-04-24T19:16:58;3.30;;;1.70;;
15936;SDS011;9163;48.818;8.976;2023-04-24T19:19:25;3.10;;;1.90;;
15936;SDS011;9163;48.818;8.976;2023-04-24T19:21:53;2.97;;;2.13;;
15936;SDS011;9163;48.818;8.976;2023-04-24T19:24:21;2.80;;;1.80;;
15936;SDS011;9163;48.818;8.976;2023-04-24T19:26:49;2.47;;;1.83;;
15936;SDS011;9163;48.818;8.976;2023-04-24T19:29:17;1.73;;;1.60;;